sensor_id;sensor_type;location;lat;lon;timestamp;P1;P4;P2;P0;N10;N4;N25;N1;N05;TS
44530;SPS30;30240;47.418;0.700;2023-06-22T00:01:59;59.81163;;59.774696;;;;;;;
44530;SPS30;30240;47.418;0.700;2023-06-22T00:04:23;79.88744;;79.643456;;;;;;;
44530;SPS30;30240;47.418;0.700;2023-06-22T00:06:49;54.63329;;54.394913;;;;;;;
44530;SPS30;30240;47.418;0.700;2023-06-22T00:09:14;31.9725;;31.838982;;;;;;;
44530;SPS30;30240;47.418;0.700;2023-06-22T00:11:39;31.9725;;31.838982;;;;;;;
44530;SPS30;30240;47.418;0.700;2023-06-22T00:14:04;22.608313;;22.40889;;;;;;;
44530;SPS30;30240;47.418;0.700;2023-06-22T00:16:29;5.720543;;5.719349;;;;;;;
44530;SPS30;30240;47.418;0.700;2023-06-22T00:18:53;6.6957674;;6.687316;;;;;;;
44530;SPS30;30240;47.418;0.700;2023-06-22T00:21:18;4.206719;;4.199171;;;;;;;
44530;SPS30;30240;47.418;0.700;2023-06-22T00:23:43;4.3821244;;4.357149;;;;;;;
44530;SPS30;30240;47.418;0.700;2023-06-22T00:26:08;4.3821244;;4.357149;;;;;;;
44530;SPS30;30240;47.418;0.700;2023-06-22T00:28:34;4.5401673;;4.5139236;;;;;;;
44530;SPS30;30240;47.418;0.700;2023-06-22T00:30:58;3.748979;;3.7160132;;;;;;;
44530;SPS30;30240;47.418;0.700;2023-06-22T00:33:23;3.7302022;;3.7008832;;;;;;;
44530;SPS30;30240;47.418;0.700;2023-06-22T00:35:48;3.3705018;;3.3474143;;;;;;;
44530;SPS30;30240;47.418;0.700;2023-06-22T00:38:13;3.3705018;;3.3474143;;;;;;;
44530;SPS30;30240;47.418;0.700;2023-06-22T00:40:38;3.4391866;;3.4203608;;;;;;;
44530;SPS30;30240;47.418;0.700;2023-06-22T00:43:04;3.2312105;;3.2104716;;;;;;;
44530;SPS30;30240;47.418;0.700;2023-06-22T00:45:28;3.5258787;;3.4927764;;;;;;;
44530;SPS30;30240;47.418;0.700;2023-06-22T00:47:54;3.551905;;3.5213504;;;;;;;
44530;SPS30;30240;47.418;0.700;2023-06-22T00:50:20;3.551905;;3.5213504;;;;;;;
44530;SPS30;30240;47.418;0.700;2023-06-22T00:52:43;3.9409695;;3.8689642;;;;;;;
44530;SPS30;30240;47.418;0.700;2023-06-22T00:55:08;3.375843;;3.3420835;;;;;;;
44530;SPS30;30240;47.418;0.700;2023-06-22T00:57:33;3.3185792;;3.2721393;;;;;;;
44530;SPS30;30240;47.418;0.700;2023-06-22T00:59:58;3.6189272;;3.584556;;;;;;;
44530;SPS30;30240;47.418;0.700;2023-06-22T01:02:23;3.6189272;;3.584556;;;;;;;
44530;SPS30;30240;47.418;0.700;2023-06-22T01:04:48;3.4699585;;3.4354067;;;;;;;
44530;SPS30;30240;47.418;0.700;2023-06-22T01:07:20;3.9371197;;3.8642228;;;;;;;
44530;SPS30;30240;47.418;0.700;2023-06-22T01:07:20;3.9371197;;3.8642228;;;;;;;
44530;SPS30;30240;47.418;0.700;2023-06-22T01:09:40;3.3791742;;3.3162675;;;;;;;
44530;SPS30;30240;47.418;0.700;2023-06-22T01:12:04;3.8532863;;3.7939613;;;;;;;
44530;SPS30;30240;47.418;0.700;2023-06-22T01:14:31;3.8532863;;3.7939613;;;;;;;
44530;SPS30;30240;47.418;0.700;2023-06-22T01:14:35;3.8532863;;3.7939613;;;;;;;
44530;SPS30;30240;47.418;0.700;2023-06-22T01:16:54;3.501358;;3.4513502;;;;;;;
44530;SPS30;30240;47.418;0.700;2023-06-22T01:19:24;3.765303;;3.7060268;;;;;;;
44530;SPS30;30240;47.418;0.700;2023-06-22T01:19:29;3.765303;;3.7060268;;;;;;;
44530;SPS30;30240;47.418;0.700;2023-06-22T01:21:43;3.983221;;3.9239411;;;;;;;
44530;SPS30;30240;47.418;0.700;2023-06-22T01:24:10;3.5745573;;3.510806;;;;;;;
44530;SPS30;30240;47.418;0.700;2023-06-22T01:26:35;3.5745573;;3.510806;;;;;;;
44530;SPS30;30240;47.418;0.700;2023-06-22T01:28:59;3.5137277;;3.4727163;;;;;;;
44530;SPS30;30240;47.418;0.700;2023-06-22T01:31:25;3.7423918;;3.6561477;;;;;;;
44530;SPS30;30240;47.418;0.700;2023-06-22T01:33:50;3.6800623;;3.6383612;;;;;;;
44530;SPS30;30240;47.418;0.700;2023-06-22T01:36:13;3.5503306;;3.528426;;;;;;;
44530;SPS30;30240;47.418;0.700;2023-06-22T01:38:38;3.5503306;;3.528426;;;;;;;
44530;SPS30;30240;47.418;0.700;2023-06-22T01:41:03;3.4750843;;3.4667633;;;;;;;
44530;SPS30;30240;47.418;0.700;2023-06-22T01:43:28;4.4291077;;4.3990626;;;;;;;
44530;SPS30;30240;47.418;0.700;2023-06-22T01:45:54;3.2206209;;3.1963627;;;;;;;
44530;SPS30;30240;47.418;0.700;2023-06-22T01:48:18;4.010783;;3.9353945;;;;;;;
44530;SPS30;30240;47.418;0.700;2023-06-22T01:50:43;3.640503;;3.6021569;;;;;;;
44530;SPS30;30240;47.418;0.700;2023-06-22T01:53:08;3.640503;;3.6021569;;;;;;;
44530;SPS30;30240;47.418;0.700;2023-06-22T01:55:34;4.632515;;4.5676575;;;;;;;
44530;SPS30;30240;47.418;0.700;2023-06-22T01:57:58;3.3760316;;3.3173203;;;;;;;
44530;SPS30;30240;47.418;0.700;2023-06-22T02:00:24;4.252689;;4.1685863;;;;;;;
44530;SPS30;30240;47.418;0.700;2023-06-22T02:02:53;3.909204;;3.8472576;;;;;;;
44530;SPS30;30240;47.418;0.700;2023-06-22T02:05:15;3.909204;;3.8472576;;;;;;;
44530;SPS30;30240;47.418;0.700;2023-06-22T02:07:41;4.4117503;;4.378612;;;;;;;
44530;SPS30;30240;47.418;0.700;2023-06-22T02:10:04;4.0515513;;4.017385;;;;;;;
44530;SPS30;30240;47.418;0.700;2023-06-22T02:12:28;4.322557;;4.275261;;;;;;;
44530;SPS30;30240;47.418;0.700;2023-06-22T02:14:53;4.4925222;;4.456462;;;;;;;
44530;SPS30;30240;47.418;0.700;2023-06-22T02:17:18;4.4925222;;4.456462;;;;;;;
44530;SPS30;30240;47.418;0.700;2023-06-22T02:19:43;4.186757;;4.164389;;;;;;;
44530;SPS30;30240;47.418;0.700;2023-06-22T02:22:08;4.4725413;;4.457888;;;;;;;
44530;SPS30;30240;47.418;0.700;2023-06-22T02:24:33;5.2768397;;5.183231;;;;;;;
44530;SPS30;30240;47.418;0.700;2023-06-22T02:26:59;4.404392;;4.350296;;;;;;;
44530;SPS30;30240;47.418;0.700;2023-06-22T02:29:23;4.404392;;4.350296;;;;;;;
44530;SPS30;30240;47.418;0.700;2023-06-22T02:31:48;4.1110935;;4.024711;;;;;;;
44530;SPS30;30240;47.418;0.700;2023-06-22T02:34:13;4.840061;;4.7684;;;;;;;
44530;SPS30;30240;47.418;0.700;2023-06-22T02:36:38;4.0677643;;4.039915;;;;;;;
44530;SPS30;30240;47.418;0.700;2023-06-22T02:39:04;4.8221045;;4.7699304;;;;;;;
44530;SPS30;30240;47.418;0.700;2023-06-22T02:41:28;4.8221045;;4.7699304;;;;;;;
44530;SPS30;30240;47.418;0.700;2023-06-22T02:43:53;5.0215497;;4.9707055;;;;;;;
44530;SPS30;30240;47.418;0.700;2023-06-22T02:46:18;4.818968;;4.7872486;;;;;;;
44530;SPS30;30240;47.418;0.700;2023-06-22T02:48:43;5.4610405;;5.372825;;;;;;;
44530;SPS30;30240;47.418;0.700;2023-06-22T02:51:08;5.119014;;5.063378;;;;;;;
44530;SPS30;30240;47.418;0.700;2023-06-22T02:53:34;5.119014;;5.063378;;;;;;;
44530;SPS30;30240;47.418;0.700;2023-06-22T02:55:58;5.0425606;;4.9990306;;;;;;;
44530;SPS30;30240;47.418;0.700;2023-06-22T02:58:23;4.561764;;4.561763;;;;;;;
44530;SPS30;30240;47.418;0.700;2023-06-22T03:00:48;5.282836;;5.254775;;;;;;;
44530;SPS30;30240;47.418;0.700;2023-06-22T03:03:13;4.568204;;4.55419;;;;;;;
44530;SPS30;30240;47.418;0.700;2023-06-22T03:05:38;4.568204;;4.55419;;;;;;;
44530;SPS30;30240;47.418;0.700;2023-06-22T03:08:03;4.6865253;;4.665257;;;;;;;
44530;SPS30;30240;47.418;0.700;2023-06-22T03:10:28;5.0518227;;5.042748;;;;;;;
44530;SPS30;30240;47.418;0.700;2023-06-22T03:12:54;5.7440214;;5.7141275;;;;;;;
44530;SPS30;30240;47.418;0.700;2023-06-22T03:15:18;5.191956;;5.170934;;;;;;;
44530;SPS30;30240;47.418;0.700;2023-06-22T03:17:43;5.191956;;5.170934;;;;;;;
44530;SPS30;30240;47.418;0.700;2023-06-22T03:20:09;4.952355;;4.952355;;;;;;;
44530;SPS30;30240;47.418;0.700;2023-06-22T03:22:33;5.313939;;5.2954273;;;;;;;
44530;SPS30;30240;47.418;0.700;2023-06-22T03:24:58;4.7783065;;4.720204;;;;;;;
44530;SPS30;30240;47.418;0.700;2023-06-22T03:27:23;4.751163;;4.689003;;;;;;;
44530;SPS30;30240;47.418;0.700;2023-06-22T03:29:48;5.1465096;;5.0787306;;;;;;;
44530;SPS30;30240;47.418;0.700;2023-06-22T03:32:13;5.1465096;;5.0787306;;;;;;;
44530;SPS30;30240;47.418;0.700;2023-06-22T03:34:39;4.9867315;;4.9185505;;;;;;;
44530;SPS30;30240;47.418;0.700;2023-06-22T03:37:04;4.789987;;4.749098;;;;;;;
44530;SPS30;30240;47.418;0.700;2023-06-22T03:39:28;5.024475;;4.9703927;;;;;;;
44530;SPS30;30240;47.418;0.700;2023-06-22T03:41:53;4.9418416;;4.8575006;;;;;;;
44530;SPS30;30240;47.418;0.700;2023-06-22T03:44:18;4.9418416;;4.8575006;;;;;;;
44530;SPS30;30240;47.418;0.700;2023-06-22T03:46:44;5.3382697;;5.2588525;;;;;;;
44530;SPS30;30240;47.418;0.700;2023-06-22T03:49:08;5.252507;;5.186476;;;;;;;
44530;SPS30;30240;47.418;0.700;2023-06-22T03:51:33;5.439261;;5.373162;;;;;;;
44530;SPS30;30240;47.418;0.700;2023-06-22T03:53:58;5.020733;;4.921684;;;;;;;
44530;SPS30;30240;47.418;0.700;2023-06-22T03:56:23;5.020733;;4.921684;;;;;;;
44530;SPS30;30240;47.418;0.700;2023-06-22T03:58:48;5.3432097;;5.303211;;;;;;;
44530;SPS30;30240;47.418;0.700;2023-06-22T04:01:13;5.059021;;5.0348935;;;;;;;
44530;SPS30;30240;47.418;0.700;2023-06-22T04:03:39;5.098903;;5.074522;;;;;;;
44530;SPS30;30240;47.418;0.700;2023-06-22T04:06:04;4.730441;;4.695085;;;;;;;
44530;SPS30;30240;47.418;0.700;2023-06-22T04:08:29;4.730441;;4.695085;;;;;;;
44530;SPS30;30240;47.418;0.700;2023-06-22T04:10:53;5.4345565;;5.418999;;;;;;;
44530;SPS30;30240;47.418;0.700;2023-06-22T04:13:18;4.664535;;4.6414714;;;;;;;
44530;SPS30;30240;47.418;0.700;2023-06-22T04:15:43;5.027303;;4.986027;;;;;;;
44530;SPS30;30240;47.418;0.700;2023-06-22T04:18:08;5.083216;;5.068087;;;;;;;
44530;SPS30;30240;47.418;0.700;2023-06-22T04:20:33;5.083216;;5.068087;;;;;;;
44530;SPS30;30240;47.418;0.700;2023-06-22T04:22:58;5.448727;;5.445034;;;;;;;
44530;SPS30;30240;47.418;0.700;2023-06-22T04:25:23;5.741814;;5.688409;;;;;;;
44530;SPS30;30240;47.418;0.700;2023-06-22T04:27:48;6.505124;;6.411381;;;;;;;
44530;SPS30;30240;47.418;0.700;2023-06-22T04:30:14;5.710394;;5.67578;;;;;;;
44530;SPS30;30240;47.418;0.700;2023-06-22T04:32:38;5.710394;;5.67578;;;;;;;
44530;SPS30;30240;47.418;0.700;2023-06-22T04:35:04;5.944007;;5.8507;;;;;;;
44530;SPS30;30240;47.418;0.700;2023-06-22T04:37:28;5.3998084;;5.3192253;;;;;;;
44530;SPS30;30240;47.418;0.700;2023-06-22T04:39:53;6.3620777;;6.310807;;;;;;;
44530;SPS30;30240;47.418;0.700;2023-06-22T04:42:18;6.595102;;6.4647727;;;;;;;
44530;SPS30;30240;47.418;0.700;2023-06-22T04:44:43;6.595102;;6.4647727;;;;;;;
44530;SPS30;30240;47.418;0.700;2023-06-22T04:47:08;6.0166984;;5.941551;;;;;;;
44530;SPS30;30240;47.418;0.700;2023-06-22T04:49:34;6.295076;;6.2797775;;;;;;;
44530;SPS30;30240;47.418;0.700;2023-06-22T04:51:59;5.1617856;;5.0888844;;;;;;;
44530;SPS30;30240;47.418;0.700;2023-06-22T04:54:23;5.6032996;;5.578203;;;;;;;
44530;SPS30;30240;47.418;0.700;2023-06-22T04:56:48;5.7495136;;5.724821;;;;;;;
44530;SPS30;30240;47.418;0.700;2023-06-22T04:59:14;5.7495136;;5.724821;;;;;;;
44530;SPS30;30240;47.418;0.700;2023-06-22T05:01:38;6.486939;;6.372411;;;;;;;
44530;SPS30;30240;47.418;0.700;2023-06-22T05:04:03;6.031964;;5.9896526;;;;;;;
44530;SPS30;30240;47.418;0.700;2023-06-22T05:06:28;6.3119035;;6.223627;;;;;;;
44530;SPS30;30240;47.418;0.700;2023-06-22T05:08:54;6.2828264;;6.248671;;;;;;;
44530;SPS30;30240;47.418;0.700;2023-06-22T05:11:19;6.2828264;;6.248671;;;;;;;
44530;SPS30;30240;47.418;0.700;2023-06-22T05:13:43;5.573384;;5.515113;;;;;;;
44530;SPS30;30240;47.418;0.700;2023-06-22T05:16:08;6.4017987;;6.2954087;;;;;;;
44530;SPS30;30240;47.418;0.700;2023-06-22T05:18:33;6.4526114;;6.3442736;;;;;;;
44530;SPS30;30240;47.418;0.700;2023-06-22T05:20:59;6.216471;;6.112558;;;;;;;
44530;SPS30;30240;47.418;0.700;2023-06-22T05:23:23;6.216471;;6.112558;;;;;;;
44530;SPS30;30240;47.418;0.700;2023-06-22T05:25:48;6.2731414;;6.190405;;;;;;;
44530;SPS30;30240;47.418;0.700;2023-06-22T05:28:13;5.9414387;;5.859699;;;;;;;
44530;SPS30;30240;47.418;0.700;2023-06-22T05:30:38;5.962246;;5.9214997;;;;;;;
44530;SPS30;30240;47.418;0.700;2023-06-22T05:33:03;5.644102;;5.6030374;;;;;;;
44530;SPS30;30240;47.418;0.700;2023-06-22T05:35:28;5.644102;;5.6030374;;;;;;;
44530;SPS30;30240;47.418;0.700;2023-06-22T05:37:53;5.766776;;5.7528524;;;;;;;
44530;SPS30;30240;47.418;0.700;2023-06-22T05:40:18;5.587391;;5.587391;;;;;;;
44530;SPS30;30240;47.418;0.700;2023-06-22T05:42:43;5.2829857;;5.2503943;;;;;;;
44530;SPS30;30240;47.418;0.700;2023-06-22T05:45:09;6.057642;;6.0170913;;;;;;;
44530;SPS30;30240;47.418;0.700;2023-06-22T05:47:33;6.057642;;6.0170913;;;;;;;
44530;SPS30;30240;47.418;0.700;2023-06-22T05:49:58;5.4532614;;5.445829;;;;;;;
44530;SPS30;30240;47.418;0.700;2023-06-22T05:52:23;5.233479;;5.231895;;;;;;;
44530;SPS30;30240;47.418;0.700;2023-06-22T05:54:49;4.861822;;4.833465;;;;;;;
44530;SPS30;30240;47.418;0.700;2023-06-22T05:57:14;6.0572033;;6.0195556;;;;;;;
44530;SPS30;30240;47.418;0.700;2023-06-22T05:59:38;6.0572033;;6.0195556;;;;;;;
44530;SPS30;30240;47.418;0.700;2023-06-22T06:02:05;4.8045335;;4.77643;;;;;;;
44530;SPS30;30240;47.418;0.700;2023-06-22T06:04:29;5.084605;;5.0101185;;;;;;;
44530;SPS30;30240;47.418;0.700;2023-06-22T06:06:53;4.990979;;4.943485;;;;;;;
44530;SPS30;30240;47.418;0.700;2023-06-22T06:09:18;5.1077027;;5.088488;;;;;;;
44530;SPS30;30240;47.418;0.700;2023-06-22T06:11:43;5.1077027;;5.088488;;;;;;;
44530;SPS30;30240;47.418;0.700;2023-06-22T06:14:08;5.009393;;4.970927;;;;;;;
44530;SPS30;30240;47.418;0.700;2023-06-22T06:16:33;4.6062236;;4.570453;;;;;;;
44530;SPS30;30240;47.418;0.700;2023-06-22T06:18:58;5.1744976;;5.1222153;;;;;;;
44530;SPS30;30240;47.418;0.700;2023-06-22T06:21:24;5.361567;;5.302216;;;;;;;
44530;SPS30;30240;47.418;0.700;2023-06-22T06:23:49;4.829631;;4.8013353;;;;;;;
44530;SPS30;30240;47.418;0.700;2023-06-22T06:26:13;4.829631;;4.8013353;;;;;;;
44530;SPS30;30240;47.418;0.700;2023-06-22T06:28:38;5.044881;;4.9829545;;;;;;;
44530;SPS30;30240;47.418;0.700;2023-06-22T06:31:04;4.824706;;4.7479024;;;;;;;
44530;SPS30;30240;47.418;0.700;2023-06-22T06:33:28;4.2486906;;4.2141733;;;;;;;
44530;SPS30;30240;47.418;0.700;2023-06-22T06:35:53;5.1808386;;5.1193695;;;;;;;
44530;SPS30;30240;47.418;0.700;2023-06-22T06:38:19;5.1808386;;5.1193695;;;;;;;
44530;SPS30;30240;47.418;0.700;2023-06-22T06:40:43;4.4653745;;4.4252462;;;;;;;
44530;SPS30;30240;47.418;0.700;2023-06-22T06:43:08;4.3409677;;4.3161197;;;;;;;
44530;SPS30;30240;47.418;0.700;2023-06-22T06:45:33;4.5901165;;4.528176;;;;;;;
44530;SPS30;30240;47.418;0.700;2023-06-22T06:47:58;4.48692;;4.424791;;;;;;;
44530;SPS30;30240;47.418;0.700;2023-06-22T06:50:24;4.48692;;4.424791;;;;;;;
44530;SPS30;30240;47.418;0.700;2023-06-22T06:52:49;4.8211374;;4.7817106;;;;;;;
44530;SPS30;30240;47.418;0.700;2023-06-22T06:55:14;4.9032297;;4.872091;;;;;;;
44530;SPS30;30240;47.418;0.700;2023-06-22T06:57:39;4.5056815;;4.505419;;;;;;;
44530;SPS30;30240;47.418;0.700;2023-06-22T07:00:04;4.3599157;;4.345606;;;;;;;
44530;SPS30;30240;47.418;0.700;2023-06-22T07:02:29;4.3599157;;4.345606;;;;;;;
44530;SPS30;30240;47.418;0.700;2023-06-22T07:04:53;5.3159184;;5.2852063;;;;;;;
44530;SPS30;30240;47.418;0.700;2023-06-22T07:07:18;4.5410156;;4.5241423;;;;;;;
44530;SPS30;30240;47.418;0.700;2023-06-22T07:09:43;5.1726756;;5.1446576;;;;;;;
44530;SPS30;30240;47.418;0.700;2023-06-22T07:12:08;4.6068325;;4.5854154;;;;;;;
44530;SPS30;30240;47.418;0.700;2023-06-22T07:14:33;4.6068325;;4.5854154;;;;;;;
44530;SPS30;30240;47.418;0.700;2023-06-22T07:16:58;4.8382688;;4.8151894;;;;;;;
44530;SPS30;30240;47.418;0.700;2023-06-22T07:19:24;5.152514;;5.1033006;;;;;;;
44530;SPS30;30240;47.418;0.700;2023-06-22T07:21:48;5.2678695;;5.186907;;;;;;;
44530;SPS30;30240;47.418;0.700;2023-06-22T07:24:14;5.2200813;;5.1565332;;;;;;;
44530;SPS30;30240;47.418;0.700;2023-06-22T07:26:38;5.2200813;;5.1565332;;;;;;;
44530;SPS30;30240;47.418;0.700;2023-06-22T07:29:03;4.922173;;4.8536887;;;;;;;
44530;SPS30;30240;47.418;0.700;2023-06-22T07:31:28;4.866274;;4.7989264;;;;;;;
44530;SPS30;30240;47.418;0.700;2023-06-22T07:33:53;4.9548526;;4.8622975;;;;;;;
44530;SPS30;30240;47.418;0.700;2023-06-22T07:36:19;5.4786973;;5.436994;;;;;;;
44530;SPS30;30240;47.418;0.700;2023-06-22T07:38:44;5.4786973;;5.436994;;;;;;;
44530;SPS30;30240;47.418;0.700;2023-06-22T07:41:09;5.9079895;;5.86667;;;;;;;
44530;SPS30;30240;47.418;0.700;2023-06-22T07:43:34;5.164526;;5.1264734;;;;;;;
44530;SPS30;30240;47.418;0.700;2023-06-22T07:45:59;5.995724;;5.967797;;;;;;;
44530;SPS30;30240;47.418;0.700;2023-06-22T07:48:23;5.315788;;5.297962;;;;;;;
44530;SPS30;30240;47.418;0.700;2023-06-22T07:50:49;5.315788;;5.297962;;;;;;;
44530;SPS30;30240;47.418;0.700;2023-06-22T07:53:13;5.164314;;5.1061893;;;;;;;
44530;SPS30;30240;47.418;0.700;2023-06-22T07:55:38;4.7915745;;4.740499;;;;;;;
44530;SPS30;30240;47.418;0.700;2023-06-22T07:58:03;4.934054;;4.8897123;;;;;;;
44530;SPS30;30240;47.418;0.700;2023-06-22T08:00:29;5.391591;;5.3351884;;;;;;;
44530;SPS30;30240;47.418;0.700;2023-06-22T08:02:54;5.307266;;5.239858;;;;;;;
44530;SPS30;30240;47.418;0.700;2023-06-22T08:05:23;5.307266;;5.239858;;;;;;;
44530;SPS30;30240;47.418;0.700;2023-06-22T08:07:44;4.8704867;;4.853035;;;;;;;
44530;SPS30;30240;47.418;0.700;2023-06-22T08:10:10;5.589184;;5.516572;;;;;;;
44530;SPS30;30240;47.418;0.700;2023-06-22T08:14:59;5.491957;;5.4589443;;;;;;;
44530;SPS30;30240;47.418;0.700;2023-06-22T08:17:24;5.491957;;5.4589443;;;;;;;
44530;SPS30;30240;47.418;0.700;2023-06-22T08:19:49;5.1885476;;5.1586194;;;;;;;
44530;SPS30;30240;47.418;0.700;2023-06-22T08:22:14;5.3990207;;5.3643174;;;;;;;
44530;SPS30;30240;47.418;0.700;2023-06-22T08:24:39;4.820934;;4.8144307;;;;;;;
44530;SPS30;30240;47.418;0.700;2023-06-22T08:27:05;5.5875406;;5.5703382;;;;;;;
44530;SPS30;30240;47.418;0.700;2023-06-22T08:29:29;5.5875406;;5.5703382;;;;;;;
44530;SPS30;30240;47.418;0.700;2023-06-22T08:31:53;4.920266;;4.9031606;;;;;;;
44530;SPS30;30240;47.418;0.700;2023-06-22T08:34:20;4.9020114;;4.874171;;;;;;;
44530;SPS30;30240;47.418;0.700;2023-06-22T08:36:44;4.58308;;4.536107;;;;;;;
44530;SPS30;30240;47.418;0.700;2023-06-22T08:39:08;5.3869863;;5.371786;;;;;;;
44530;SPS30;30240;47.418;0.700;2023-06-22T08:41:33;5.3869863;;5.371786;;;;;;;
44530;SPS30;30240;47.418;0.700;2023-06-22T08:43:59;5.4533634;;5.410548;;;;;;;
44530;SPS30;30240;47.418;0.700;2023-06-22T08:46:24;4.701571;;4.6672583;;;;;;;
44530;SPS30;30240;47.418;0.700;2023-06-22T08:48:51;4.750539;;4.697332;;;;;;;
44530;SPS30;30240;47.418;0.700;2023-06-22T08:51:14;4.6346827;;4.5859632;;;;;;;
44530;SPS30;30240;47.418;0.700;2023-06-22T08:53:38;4.6346827;;4.5859632;;;;;;;
44530;SPS30;30240;47.418;0.700;2023-06-22T08:56:04;5.1047263;;5.078245;;;;;;;
44530;SPS30;30240;47.418;0.700;2023-06-22T08:58:29;4.3685327;;4.3348765;;;;;;;
44530;SPS30;30240;47.418;0.700;2023-06-22T09:00:54;4.313336;;4.313336;;;;;;;
44530;SPS30;30240;47.418;0.700;2023-06-22T09:03:19;5.164153;;5.161884;;;;;;;
44530;SPS30;30240;47.418;0.700;2023-06-22T09:05:44;5.164153;;5.161884;;;;;;;
44530;SPS30;30240;47.418;0.700;2023-06-22T09:08:08;4.64334;;4.6284857;;;;;;;
44530;SPS30;30240;47.418;0.700;2023-06-22T09:10:34;4.994777;;4.994777;;;;;;;
44530;SPS30;30240;47.418;0.700;2023-06-22T09:12:58;5.0820575;;5.0525846;;;;;;;
44530;SPS30;30240;47.418;0.700;2023-06-22T09:15:23;4.761487;;4.7006903;;;;;;;
44530;SPS30;30240;47.418;0.700;2023-06-22T09:17:48;4.761487;;4.7006903;;;;;;;
44530;SPS30;30240;47.418;0.700;2023-06-22T09:20:13;5.393949;;5.364908;;;;;;;
44530;SPS30;30240;47.418;0.700;2023-06-22T09:22:38;5.2759595;;5.2522464;;;;;;;
44530;SPS30;30240;47.418;0.700;2023-06-22T09:25:04;5.6448507;;5.5853825;;;;;;;
44530;SPS30;30240;47.418;0.700;2023-06-22T09:27:28;5.404289;;5.3685465;;;;;;;
44530;SPS30;30240;47.418;0.700;2023-06-22T09:29:54;5.3433056;;5.2985673;;;;;;;
44530;SPS30;30240;47.418;0.700;2023-06-22T09:32:18;5.3433056;;5.2985673;;;;;;;
44530;SPS30;30240;47.418;0.700;2023-06-22T09:34:43;5.5081577;;5.472673;;;;;;;
44530;SPS30;30240;47.418;0.700;2023-06-22T09:37:09;5.6973076;;5.6390257;;;;;;;
44530;SPS30;30240;47.418;0.700;2023-06-22T09:39:34;6.4094625;;6.3555517;;;;;;;
44530;SPS30;30240;47.418;0.700;2023-06-22T09:41:59;5.6715603;;5.645061;;;;;;;
44530;SPS30;30240;47.418;0.700;2023-06-22T09:44:23;5.6715603;;5.645061;;;;;;;
44530;SPS30;30240;47.418;0.700;2023-06-22T09:46:49;6.511067;;6.4177504;;;;;;;
44530;SPS30;30240;47.418;0.700;2023-06-22T09:49:13;6.022408;;5.9552994;;;;;;;
44530;SPS30;30240;47.418;0.700;2023-06-22T09:51:38;6.8231544;;6.6732388;;;;;;;
44530;SPS30;30240;47.418;0.700;2023-06-22T09:54:03;6.564918;;6.5269184;;;;;;;
44530;SPS30;30240;47.418;0.700;2023-06-22T09:56:29;6.564918;;6.5269184;;;;;;;
44530;SPS30;30240;47.418;0.700;2023-06-22T09:58:53;6.3498597;;6.2945056;;;;;;;
44530;SPS30;30240;47.418;0.700;2023-06-22T10:01:18;6.3935637;;6.3704863;;;;;;;
44530;SPS30;30240;47.418;0.700;2023-06-22T10:03:43;7.0794587;;7.01538;;;;;;;
44530;SPS30;30240;47.418;0.700;2023-06-22T10:06:08;6.659593;;6.553445;;;;;;;
44530;SPS30;30240;47.418;0.700;2023-06-22T10:08:34;6.659593;;6.553445;;;;;;;
44530;SPS30;30240;47.418;0.700;2023-06-22T10:10:59;6.998349;;6.8894157;;;;;;;
44530;SPS30;30240;47.418;0.700;2023-06-22T10:13:29;7.4518404;;7.3326225;;;;;;;
44530;SPS30;30240;47.418;0.700;2023-06-22T10:15:49;6.4726243;;6.327868;;;;;;;
44530;SPS30;30240;47.418;0.700;2023-06-22T10:18:14;7.8975544;;7.7738194;;;;;;;
44530;SPS30;30240;47.418;0.700;2023-06-22T10:20:38;7.8975544;;7.7738194;;;;;;;
44530;SPS30;30240;47.418;0.700;2023-06-22T10:23:03;7.6441116;;7.5762944;;;;;;;
44530;SPS30;30240;47.418;0.700;2023-06-22T10:25:28;7.2883554;;7.0725427;;;;;;;
44530;SPS30;30240;47.418;0.700;2023-06-22T10:27:53;7.460079;;7.285807;;;;;;;
44530;SPS30;30240;47.418;0.700;2023-06-22T10:30:18;7.662609;;7.549591;;;;;;;
44530;SPS30;30240;47.418;0.700;2023-06-22T10:32:44;7.662609;;7.549591;;;;;;;
44530;SPS30;30240;47.418;0.700;2023-06-22T10:35:09;7.4257736;;7.22756;;;;;;;
44530;SPS30;30240;47.418;0.700;2023-06-22T10:37:33;7.8430347;;7.6958313;;;;;;;
44530;SPS30;30240;47.418;0.700;2023-06-22T10:39:58;7.544293;;7.368452;;;;;;;
44530;SPS30;30240;47.418;0.700;2023-06-22T10:42:23;7.630088;;7.4524846;;;;;;;
44530;SPS30;30240;47.418;0.700;2023-06-22T10:44:48;7.630088;;7.4524846;;;;;;;
44530;SPS30;30240;47.418;0.700;2023-06-22T10:47:14;8.194934;;8.09699;;;;;;;
44530;SPS30;30240;47.418;0.700;2023-06-22T10:49:39;6.738294;;6.712802;;;;;;;
44530;SPS30;30240;47.418;0.700;2023-06-22T10:52:04;5.837939;;5.802056;;;;;;;
44530;SPS30;30240;47.418;0.700;2023-06-22T10:54:28;8.412723;;8.097022;;;;;;;
44530;SPS30;30240;47.418;0.700;2023-06-22T10:56:53;8.412723;;8.097022;;;;;;;
44530;SPS30;30240;47.418;0.700;2023-06-22T10:59:19;7.8153367;;7.6560345;;;;;;;
44530;SPS30;30240;47.418;0.700;2023-06-22T11:01:43;8.242591;;8.078709;;;;;;;
44530;SPS30;30240;47.418;0.700;2023-06-22T11:04:09;7.3440866;;7.1703176;;;;;;;
44530;SPS30;30240;47.418;0.700;2023-06-22T11:06:33;8.104835;;7.9897504;;;;;;;
44530;SPS30;30240;47.418;0.700;2023-06-22T11:08:58;7.852354;;7.7852726;;;;;;;
44530;SPS30;30240;47.418;0.700;2023-06-22T11:11:24;7.852354;;7.7852726;;;;;;;
44530;SPS30;30240;47.418;0.700;2023-06-22T11:13:48;7.105727;;7.000403;;;;;;;
44530;SPS30;30240;47.418;0.700;2023-06-22T11:16:13;7.373799;;7.2347407;;;;;;;
44530;SPS30;30240;47.418;0.700;2023-06-22T11:18:38;6.9600782;;6.8066125;;;;;;;
44530;SPS30;30240;47.418;0.700;2023-06-22T11:21:03;7.3480954;;7.2189436;;;;;;;
44530;SPS30;30240;47.418;0.700;2023-06-22T11:23:28;7.3480954;;7.2189436;;;;;;;
44530;SPS30;30240;47.418;0.700;2023-06-22T11:25:54;6.842096;;6.7797556;;;;;;;
44530;SPS30;30240;47.418;0.700;2023-06-22T11:28:19;6.095121;;6.054195;;;;;;;
44530;SPS30;30240;47.418;0.700;2023-06-22T11:30:44;6.885632;;6.787762;;;;;;;
44530;SPS30;30240;47.418;0.700;2023-06-22T11:33:08;7.2863665;;7.089339;;;;;;;
44530;SPS30;30240;47.418;0.700;2023-06-22T11:35:34;7.2863665;;7.089339;;;;;;;
44530;SPS30;30240;47.418;0.700;2023-06-22T11:37:58;6.7784457;;6.661155;;;;;;;
44530;SPS30;30240;47.418;0.700;2023-06-22T11:40:23;6.902572;;6.754479;;;;;;;
44530;SPS30;30240;47.418;0.700;2023-06-22T11:42:49;7.2585635;;7.0694056;;;;;;;
44530;SPS30;30240;47.418;0.700;2023-06-22T11:45:13;6.8815846;;6.6689925;;;;;;;
44530;SPS30;30240;47.418;0.700;2023-06-22T11:47:38;6.8815846;;6.6689925;;;;;;;
44530;SPS30;30240;47.418;0.700;2023-06-22T11:50:04;7.0535893;;6.922858;;;;;;;
44530;SPS30;30240;47.418;0.700;2023-06-22T11:52:29;6.1705413;;6.075874;;;;;;;
44530;SPS30;30240;47.418;0.700;2023-06-22T11:54:53;5.855055;;5.721501;;;;;;;
44530;SPS30;30240;47.418;0.700;2023-06-22T11:57:18;6.877925;;6.7587976;;;;;;;
44530;SPS30;30240;47.418;0.700;2023-06-22T11:59:43;6.877925;;6.7587976;;;;;;;
44530;SPS30;30240;47.418;0.700;2023-06-22T12:02:08;6.57694;;6.463289;;;;;;;
44530;SPS30;30240;47.418;0.700;2023-06-22T12:04:33;5.4658313;;5.4070406;;;;;;;
44530;SPS30;30240;47.418;0.700;2023-06-22T12:06:58;5.7204256;;5.6231904;;;;;;;
44530;SPS30;30240;47.418;0.700;2023-06-22T12:09:24;6.3917646;;6.318117;;;;;;;
44530;SPS30;30240;47.418;0.700;2023-06-22T12:11:48;6.3917646;;6.318117;;;;;;;
44530;SPS30;30240;47.418;0.700;2023-06-22T12:14:13;6.686274;;6.5932283;;;;;;;